createdAt,value
2019-04-04T00:00:16.267Z,7.30
2019-04-04T00:02:49.564Z,7.28
2019-04-04T00:05:17.365Z,7.28
2019-04-04T00:07:47.188Z,7.28
2019-04-04T00:10:16.696Z,7.28
2019-04-04T00:12:45.986Z,6.91
2019-04-04T00:15:15.558Z,6.91
2019-04-04T00:17:45.150Z,6.94
2019-04-04T00:20:14.466Z,7.12
2019-04-04T00:22:43.738Z,7.12
2019-04-04T00:25:13.074Z,7.13
2019-04-04T00:27:43.981Z,7.17
2019-04-04T00:30:14.038Z,7.01
2019-04-04T00:32:43.323Z,7.08
2019-04-04T00:35:12.702Z,7.08
2019-04-04T00:37:42.131Z,6.63
2019-04-04T00:40:11.938Z,6.98
2019-04-04T00:42:41.398Z,6.97
2019-04-04T00:45:12.313Z,7.02
2019-04-04T00:47:43.138Z,7.06
2019-04-04T00:50:12.963Z,6.90
2019-04-04T00:52:42.386Z,6.90
2019-04-04T00:55:11.831Z,6.94
2019-04-04T00:57:41.154Z,6.94
2019-04-04T01:00:10.747Z,6.90
2019-04-04T01:02:40.159Z,6.90
2019-04-04T01:05:10.385Z,6.68
2019-04-04T01:07:39.706Z,6.63
2019-04-04T01:10:09.350Z,6.66
2019-04-04T01:12:39.024Z,6.71
2019-04-04T01:15:09.051Z,6.71
2019-04-04T01:17:38.995Z,6.68
2019-04-04T01:20:10.426Z,6.89
2019-04-04T01:22:40.071Z,6.89
2019-04-04T01:25:10.005Z,6.91
2019-04-04T01:27:39.421Z,6.88
2019-04-04T01:30:12.509Z,6.92
2019-04-04T01:32:41.363Z,6.92
2019-04-04T01:35:11.217Z,6.82
2019-04-04T01:37:40.777Z,6.82
2019-04-04T01:40:11.212Z,6.82
2019-04-04T01:42:40.795Z,6.69
2019-04-04T01:45:12.753Z,6.66
2019-04-04T01:47:41.654Z,6.65
2019-04-04T01:50:11.477Z,6.65
2019-04-04T01:52:40.860Z,6.56
2019-04-04T01:55:11.061Z,6.56
2019-04-04T01:57:40.652Z,6.55
2019-04-04T02:00:14.758Z,6.66
2019-04-04T02:02:43.394Z,6.69
2019-04-04T02:05:13.097Z,6.77
2019-04-04T02:07:42.364Z,6.77
2019-04-04T02:10:12.497Z,6.62
2019-04-04T02:12:41.888Z,6.62
2019-04-04T02:15:13.950Z,6.36
2019-04-04T02:17:42.814Z,6.32
2019-04-04T02:20:13.146Z,6.32
2019-04-04T02:22:42.484Z,6.14
2019-04-04T02:25:12.471Z,6.48
2019-04-04T02:27:41.936Z,6.35
2019-04-04T02:30:14.941Z,6.35
2019-04-04T02:32:42.797Z,6.42
2019-04-04T02:35:12.856Z,6.39
2019-04-04T02:37:42.279Z,6.36
2019-04-04T02:40:12.531Z,6.40
2019-04-04T02:42:42.301Z,6.40
2019-04-04T02:45:12.071Z,6.38
2019-04-04T02:47:41.680Z,6.12
2019-04-04T02:50:12.522Z,6.34
2019-04-04T02:52:45.816Z,6.34
2019-04-04T02:55:13.272Z,6.35
2019-04-04T02:57:42.650Z,6.46
2019-04-04T03:00:13.117Z,6.39
2019-04-04T03:02:42.584Z,6.37
2019-04-04T03:05:12.193Z,6.33
2019-04-04T03:07:41.795Z,6.33
2019-04-04T03:10:16.500Z,6.23
2019-04-04T03:12:44.534Z,6.10
2019-04-04T03:15:14.106Z,6.28
2019-04-04T03:17:43.754Z,6.28
2019-04-04T03:20:17.374Z,6.30
2019-04-04T03:22:45.248Z,6.30
2019-04-04T03:25:15.741Z,6.15
2019-04-04T03:27:45.647Z,6.28
2019-04-04T03:30:17.116Z,6.28
2019-04-04T03:32:51.834Z,6.07
2019-04-04T03:35:25.560Z,6.43
2019-04-04T03:37:48.984Z,6.49
2019-04-04T03:40:18.285Z,6.52
2019-04-04T03:42:47.628Z,6.46
2019-04-04T03:45:17.010Z,6.46
2019-04-04T03:47:46.314Z,6.44
2019-04-04T03:50:15.617Z,6.56
2019-04-04T03:52:45.378Z,6.58
2019-04-04T03:55:14.662Z,6.51
2019-04-04T03:57:44.183Z,6.55
2019-04-04T04:00:22.109Z,6.55
2019-04-04T04:02:51.633Z,6.44
2019-04-04T04:05:26.153Z,6.44
2019-04-04T04:07:55.932Z,6.49
2019-04-04T04:10:25.415Z,6.46
2019-04-04T04:12:55.182Z,6.46
2019-04-04T04:15:29.071Z,6.49
2019-04-04T04:17:55.501Z,6.50
2019-04-04T04:20:24.997Z,6.39
2019-04-04T04:22:54.684Z,6.45
2019-04-04T04:25:24.182Z,6.45
2019-04-04T04:27:53.515Z,6.34
2019-04-04T04:30:23.045Z,6.39
2019-04-04T04:32:55.860Z,6.38
2019-04-04T04:35:24.193Z,6.38
2019-04-04T04:37:54.097Z,6.32
2019-04-04T04:40:23.617Z,6.32
2019-04-04T04:42:53.079Z,6.32
2019-04-04T04:45:22.894Z,6.27
2019-04-04T04:47:55.895Z,6.04
2019-04-04T04:50:23.471Z,6.30
2019-04-04T04:52:52.947Z,6.30
2019-04-04T04:55:24.518Z,6.36
2019-04-04T04:57:56.280Z,6.29
2019-04-04T05:00:27.704Z,6.29
2019-04-04T05:02:56.430Z,6.26
2019-04-04T05:05:26.233Z,6.27
2019-04-04T05:07:55.717Z,6.19
2019-04-04T05:10:25.390Z,6.12
2019-04-04T05:12:54.722Z,6.21
2019-04-04T05:15:24.974Z,6.21
2019-04-04T05:17:54.782Z,6.00
2019-04-04T05:20:25.556Z,6.23
2019-04-04T05:22:55.386Z,6.23
2019-04-04T05:25:25.175Z,6.18
2019-04-04T05:27:54.824Z,6.28
2019-04-04T05:30:24.335Z,6.26
2019-04-04T05:32:56.360Z,6.40
2019-04-04T05:35:25.121Z,6.25
2019-04-04T05:37:54.393Z,6.25
2019-04-04T05:40:24.245Z,6.24
2019-04-04T05:42:53.829Z,6.34
2019-04-04T05:45:23.634Z,6.37
2019-04-04T05:47:55.070Z,6.34
2019-04-04T05:50:24.112Z,6.45
2019-04-04T05:52:54.179Z,6.59
2019-04-04T05:55:23.521Z,6.44
2019-04-04T05:57:53.543Z,6.38
2019-04-04T06:00:23.001Z,6.38
2019-04-04T06:02:52.332Z,6.55
2019-04-04T06:05:21.650Z,6.54
2019-04-04T06:07:50.967Z,6.54
2019-04-04T06:10:20.726Z,6.52
2019-04-04T06:12:50.246Z,6.59
2019-04-04T06:15:19.549Z,6.63
2019-04-04T06:17:48.873Z,6.69
2019-04-04T06:20:18.927Z,6.72
2019-04-04T06:22:50.018Z,6.69
2019-04-04T06:25:19.579Z,6.87
2019-04-04T06:27:49.427Z,6.94
2019-04-04T06:30:20.134Z,7.14
2019-04-04T06:32:50.024Z,7.11
2019-04-04T06:35:19.387Z,7.11
2019-04-04T06:37:51.025Z,7.12
2019-04-04T06:40:20.343Z,7.11
2019-04-04T06:42:49.652Z,7.10
2019-04-04T06:45:19.317Z,7.10
2019-04-04T06:47:49.075Z,7.16
2019-04-04T06:50:18.381Z,7.04
2019-04-04T06:52:50.143Z,6.98
2019-04-04T06:55:18.887Z,6.87
2019-04-04T06:57:51.149Z,6.87
2019-04-04T07:00:19.915Z,6.88
2019-04-04T07:02:49.448Z,6.85
2019-04-04T07:05:19.026Z,6.85
2019-04-04T07:07:48.606Z,7.08
2019-04-04T07:10:20.932Z,7.11
2019-04-04T07:12:49.118Z,7.01
2019-04-04T07:15:18.596Z,7.18
2019-04-04T07:17:48.033Z,7.18
2019-04-04T07:20:17.578Z,7.15
2019-04-04T07:22:47.086Z,7.15
2019-04-04T07:25:16.411Z,7.17
2019-04-04T07:27:47.421Z,7.17
2019-04-04T07:30:17.087Z,7.17
2019-04-04T07:32:46.440Z,7.22
2019-04-04T07:35:17.260Z,7.22
2019-04-04T07:37:46.790Z,7.48
2019-04-04T07:40:16.391Z,7.41
2019-04-04T07:42:47.894Z,7.16
2019-04-04T07:45:16.829Z,7.16
2019-04-04T07:47:47.681Z,6.98
2019-04-04T07:50:17.437Z,7.14
2019-04-04T07:52:47.083Z,7.32
2019-04-04T07:55:16.678Z,7.32
2019-04-04T07:57:45.998Z,7.41
2019-04-04T08:00:15.639Z,7.37
2019-04-04T08:02:45.245Z,7.46
2019-04-04T08:05:14.699Z,7.43
2019-04-04T08:07:44.204Z,7.45
2019-04-04T08:10:20.403Z,7.49
2019-04-04T08:12:45.610Z,7.60
2019-04-04T08:15:15.360Z,7.63
2019-04-04T08:17:44.798Z,7.55
2019-04-04T08:20:14.201Z,7.65
2019-04-04T08:22:43.724Z,7.51
2019-04-04T08:25:13.604Z,7.57
2019-04-04T08:27:43.122Z,7.65
2019-04-04T08:30:13.825Z,7.70
2019-04-04T08:32:43.300Z,7.73
2019-04-04T08:35:12.821Z,7.54
2019-04-04T08:37:42.765Z,7.22
2019-04-04T08:40:12.249Z,7.51
2019-04-04T08:42:41.715Z,7.58
2019-04-04T08:45:11.713Z,7.53
2019-04-04T08:47:41.097Z,7.16
2019-04-04T08:50:11.120Z,7.48
2019-04-04T08:52:40.526Z,7.48
2019-04-04T08:55:10.300Z,7.30
2019-04-04T08:57:39.596Z,7.30
2019-04-04T09:00:09.686Z,7.46
2019-04-04T09:02:39.670Z,7.69
2019-04-04T09:05:12.190Z,7.82
2019-04-04T09:07:40.325Z,7.94
2019-04-04T09:10:11.198Z,7.97
2019-04-04T09:12:42.008Z,7.94
2019-04-04T09:15:12.128Z,8.04
2019-04-04T09:17:41.406Z,8.10
2019-04-04T09:20:11.394Z,8.10
2019-04-04T09:22:41.211Z,8.10
2019-04-04T09:25:11.765Z,7.62
2019-04-04T09:27:41.287Z,7.86
2019-04-04T09:30:11.534Z,8.19
2019-04-04T09:32:41.426Z,8.30
2019-04-04T09:35:11.155Z,8.38
2019-04-04T09:37:40.914Z,8.36
2019-04-04T09:40:11.016Z,8.60
2019-04-04T09:42:41.361Z,8.60
2019-04-04T09:45:12.728Z,8.48
2019-04-04T09:47:42.419Z,8.60
2019-04-04T09:50:13.472Z,8.39
2019-04-04T09:52:42.981Z,8.33
2019-04-04T09:55:12.630Z,8.28
2019-04-04T09:57:42.521Z,8.51
2019-04-04T10:00:14.775Z,8.62
2019-04-04T10:02:44.093Z,8.63
2019-04-04T10:05:15.001Z,8.42
2019-04-04T10:07:44.415Z,8.54
2019-04-04T10:10:15.121Z,8.48
2019-04-04T10:12:44.458Z,8.52
2019-04-04T10:15:14.875Z,8.31
2019-04-04T10:17:45.402Z,8.34
2019-04-04T10:20:15.426Z,8.23
2019-04-04T10:22:45.036Z,8.35
2019-04-04T10:25:14.420Z,8.35
2019-04-04T10:27:43.849Z,8.21
2019-04-04T10:30:13.997Z,8.27
2019-04-04T10:32:43.687Z,8.20
2019-04-04T10:35:13.303Z,8.56
2019-04-04T10:37:42.631Z,8.27
2019-04-04T10:40:13.085Z,8.64
2019-04-04T10:42:42.409Z,8.42
2019-04-04T10:45:13.019Z,8.42
2019-04-04T10:47:42.331Z,8.45
2019-04-04T10:50:12.862Z,8.40
2019-04-04T10:52:42.318Z,8.67
2019-04-04T10:55:12.135Z,8.67
2019-04-04T10:57:41.542Z,8.75
2019-04-04T11:00:12.217Z,8.75
2019-04-04T11:02:41.621Z,8.66
2019-04-04T11:05:11.572Z,8.58
2019-04-04T11:07:40.866Z,8.12
2019-04-04T11:10:10.280Z,8.32
2019-04-04T11:12:39.578Z,8.20
2019-04-04T11:15:09.898Z,8.40
2019-04-04T11:17:39.219Z,8.53
2019-04-04T11:20:08.570Z,8.47
2019-04-04T11:22:37.852Z,8.52
2019-04-04T11:25:07.933Z,8.53
2019-04-04T11:27:37.217Z,8.50
2019-04-04T11:30:08.842Z,8.47
2019-04-04T11:32:38.310Z,8.36
2019-04-04T11:35:08.157Z,8.56
2019-04-04T11:37:37.619Z,7.86
2019-04-04T11:40:07.329Z,8.13
2019-04-04T11:42:36.622Z,8.21
2019-04-04T11:45:06.442Z,8.11
2019-04-04T11:47:35.809Z,8.33
2019-04-04T11:50:07.723Z,8.15
2019-04-04T11:52:37.306Z,8.17
2019-04-04T11:55:08.027Z,8.22
2019-04-04T11:57:38.472Z,8.37
2019-04-04T12:00:09.812Z,8.41
2019-04-04T12:02:39.158Z,8.56
2019-04-04T12:05:08.825Z,8.51
2019-04-04T12:07:38.505Z,8.44
2019-04-04T12:10:08.864Z,8.44
2019-04-04T12:12:38.133Z,8.33
2019-04-04T12:15:09.587Z,8.08
2019-04-04T12:17:38.901Z,8.21
2019-04-04T12:20:09.146Z,8.20
2019-04-04T12:22:38.445Z,8.10
2019-04-04T12:25:08.405Z,8.26
2019-04-04T12:27:37.701Z,8.40
2019-04-04T12:30:08.828Z,8.32
2019-04-04T12:32:38.148Z,8.49
2019-04-04T12:35:07.793Z,8.46
2019-04-04T12:37:37.189Z,8.30
2019-04-04T12:40:19.831Z,8.55
2019-04-04T12:42:38.846Z,8.71
2019-04-04T12:45:09.395Z,8.68
2019-04-04T12:47:38.796Z,8.44
2019-04-04T12:50:08.896Z,8.10
2019-04-04T12:52:38.377Z,8.10
2019-04-04T12:55:08.191Z,8.38
2019-04-04T12:57:37.495Z,8.61
2019-04-04T13:00:10.102Z,8.54
2019-04-04T13:02:39.649Z,8.53
2019-04-04T13:05:10.719Z,8.16
2019-04-04T13:07:40.021Z,8.11
2019-04-04T13:10:11.964Z,8.10
2019-04-04T13:12:41.893Z,7.97
2019-04-04T13:15:11.749Z,8.08
2019-04-04T13:17:41.025Z,8.37
2019-04-04T13:20:10.761Z,8.31
2019-04-04T13:22:40.132Z,8.35
2019-04-04T13:25:10.172Z,8.46
2019-04-04T13:27:39.669Z,8.14
2019-04-04T13:30:13.197Z,7.81
2019-04-04T13:32:42.490Z,8.18
2019-04-04T13:35:12.158Z,7.83
2019-04-04T13:37:41.710Z,8.21
2019-04-04T13:40:14.589Z,7.68
2019-04-04T13:42:44.158Z,7.63
2019-04-04T13:45:13.817Z,7.81
2019-04-04T13:47:43.127Z,8.09
2019-04-04T13:50:13.089Z,7.94
2019-04-04T13:52:42.366Z,7.60
2019-04-04T13:55:11.816Z,7.72
2019-04-04T13:57:41.115Z,7.62
2019-04-04T14:00:12.429Z,7.68
2019-04-04T14:02:41.814Z,7.41
2019-04-04T14:05:14.328Z,7.58
2019-04-04T14:07:44.178Z,7.98
2019-04-04T14:10:16.847Z,8.07
2019-04-04T14:12:45.426Z,8.06
2019-04-04T14:15:15.680Z,8.07
2019-04-04T14:17:44.959Z,7.58
2019-04-04T14:20:14.910Z,7.73
2019-04-04T14:22:44.180Z,7.51
2019-04-04T14:25:13.857Z,7.45
2019-04-04T14:27:43.640Z,7.63
2019-04-04T14:30:14.106Z,7.63
2019-04-04T14:32:43.395Z,8.20
2019-04-04T14:35:13.349Z,8.11
2019-04-04T14:37:42.621Z,8.61
2019-04-04T14:40:12.577Z,8.61
2019-04-04T14:42:41.841Z,8.63
2019-04-04T14:45:11.600Z,8.76
2019-04-04T14:47:40.900Z,8.93
2019-04-04T14:50:10.514Z,9.04
2019-04-04T14:52:39.946Z,8.73
2019-04-04T14:55:10.246Z,8.73
2019-04-04T14:57:39.710Z,8.96
2019-04-04T15:00:11.005Z,8.78
2019-04-04T15:02:40.388Z,9.20
2019-04-04T15:05:09.833Z,9.12
2019-04-04T15:07:39.226Z,8.81
2019-04-04T15:10:08.836Z,8.26
2019-04-04T15:12:38.148Z,7.97
2019-04-04T15:15:09.197Z,7.97
2019-04-04T15:17:38.495Z,7.89
2019-04-04T15:20:08.950Z,8.29
2019-04-04T15:22:38.217Z,8.53
2019-04-04T15:25:07.683Z,8.63
2019-04-04T15:27:36.998Z,8.82
2019-04-04T15:30:07.834Z,8.84
2019-04-04T15:32:37.234Z,8.46
2019-04-04T15:35:07.567Z,8.68
2019-04-04T15:37:36.878Z,8.88
2019-04-04T15:40:07.904Z,8.44
2019-04-04T15:42:40.315Z,8.63
2019-04-04T15:45:10.135Z,8.75
2019-04-04T15:47:39.514Z,8.97
2019-04-04T15:50:10.325Z,8.93
2019-04-04T15:52:39.638Z,8.93
2019-04-04T15:55:10.549Z,9.18
2019-04-04T15:57:39.896Z,9.04
2019-04-04T16:00:10.004Z,8.83
2019-04-04T16:02:39.303Z,8.59
2019-04-04T16:05:09.549Z,8.90
2019-04-04T16:07:38.847Z,9.02
2019-04-04T16:10:09.241Z,8.48
2019-04-04T16:12:38.628Z,8.47
2019-04-04T16:15:08.652Z,8.28
2019-04-04T16:17:37.945Z,8.24
2019-04-04T16:20:09.135Z,8.39
2019-04-04T16:22:38.490Z,8.37
2019-04-04T16:25:09.378Z,8.33
2019-04-04T16:27:38.746Z,8.45
2019-04-04T16:30:10.158Z,8.44
2019-04-04T16:32:39.682Z,8.45
2019-04-04T16:35:14.244Z,8.86
2019-04-04T16:37:43.768Z,8.79
2019-04-04T16:40:13.696Z,8.99
2019-04-04T16:42:42.975Z,9.12
2019-04-04T16:45:13.251Z,9.17
2019-04-04T16:47:42.989Z,9.16
2019-04-04T16:50:14.102Z,9.03
2019-04-04T16:52:43.377Z,8.84
2019-04-04T16:55:13.459Z,8.40
2019-04-04T16:57:43.470Z,8.67
2019-04-04T17:00:14.599Z,8.68
2019-04-04T17:02:44.105Z,8.84
2019-04-04T17:05:14.860Z,8.63
2019-04-04T17:07:44.175Z,8.49
2019-04-04T17:10:14.699Z,8.48
2019-04-04T17:12:44.002Z,8.30
2019-04-04T17:15:14.506Z,8.18
2019-04-04T17:17:43.831Z,8.11
2019-04-04T17:20:14.222Z,8.15
2019-04-04T17:22:43.539Z,8.51
2019-04-04T17:25:15.914Z,8.45
2019-04-04T17:27:44.039Z,8.41
2019-04-04T17:30:15.059Z,8.30
2019-04-04T17:32:44.361Z,8.14
2019-04-04T17:35:14.308Z,8.04
2019-04-04T17:37:43.611Z,8.07
2019-04-04T17:40:13.774Z,8.28
2019-04-04T17:42:43.166Z,8.26
2019-04-04T17:45:13.773Z,8.01
2019-04-04T17:47:43.171Z,7.96
2019-04-04T17:50:15.491Z,7.96
2019-04-04T17:52:45.898Z,7.93
2019-04-04T17:55:16.497Z,8.15
2019-04-04T17:57:46.888Z,8.04
2019-04-04T18:00:18.816Z,8.03
2019-04-04T18:02:48.094Z,8.03
2019-04-04T18:05:18.729Z,8.00
2019-04-04T18:07:48.093Z,8.06
2019-04-04T18:10:18.251Z,8.13
2019-04-04T18:12:48.064Z,8.11
2019-04-04T18:15:18.756Z,8.10
2019-04-04T18:17:48.025Z,7.95
2019-04-04T18:20:18.128Z,7.90
2019-04-04T18:22:47.456Z,7.87
2019-04-04T18:25:16.807Z,7.87
2019-04-04T18:27:46.341Z,7.88
2019-04-04T18:30:16.371Z,7.94
2019-04-04T18:32:45.714Z,7.75
2019-04-04T18:35:15.338Z,7.62
2019-04-04T18:37:44.815Z,7.76
2019-04-04T18:40:14.680Z,7.73
2019-04-04T18:42:53.309Z,7.66
2019-04-04T18:45:15.458Z,7.57
2019-04-04T18:47:44.766Z,7.39
2019-04-04T18:50:14.903Z,7.39
2019-04-04T18:52:44.199Z,7.31
2019-04-04T18:55:19.759Z,7.31
2019-04-04T18:57:44.635Z,7.42
2019-04-04T19:00:15.937Z,7.36
2019-04-04T19:02:45.260Z,7.36
2019-04-04T19:05:14.706Z,7.29
2019-04-04T19:07:44.092Z,7.45
2019-04-04T19:10:14.311Z,7.31
2019-04-04T19:12:43.704Z,7.16
2019-04-04T19:15:13.949Z,7.16
2019-04-04T19:17:43.337Z,7.18
2019-04-04T19:20:13.387Z,7.06
2019-04-04T19:22:43.058Z,7.20
2019-04-04T19:25:13.893Z,7.14
2019-04-04T19:27:43.578Z,7.16
2019-04-04T19:30:14.271Z,7.16
2019-04-04T19:32:43.669Z,6.94
2019-04-04T19:35:13.578Z,6.94
2019-04-04T19:37:42.904Z,6.88
2019-04-04T19:40:13.133Z,6.78
2019-04-04T19:42:42.518Z,6.87
2019-04-04T19:45:12.751Z,6.59
2019-04-04T19:47:42.163Z,6.69
2019-04-04T19:50:12.601Z,6.59
2019-04-04T19:52:41.922Z,6.59
2019-04-04T19:55:11.553Z,6.53
2019-04-04T19:57:41.160Z,6.52
2019-04-04T20:00:12.663Z,6.56
2019-04-04T20:02:43.949Z,6.74
2019-04-04T20:05:13.446Z,6.63
2019-04-04T20:07:42.885Z,6.63
2019-04-04T20:10:12.755Z,6.70
2019-04-04T20:12:42.059Z,6.64
2019-04-04T20:15:12.008Z,6.64
2019-04-04T20:17:41.471Z,6.53
2019-04-04T20:20:11.729Z,6.48
2019-04-04T20:22:41.042Z,6.39
2019-04-04T20:25:10.802Z,6.58
2019-04-04T20:27:40.125Z,6.68
2019-04-04T20:30:10.572Z,6.58
2019-04-04T20:32:40.014Z,6.71
2019-04-04T20:35:09.548Z,6.70
2019-04-04T20:37:38.905Z,6.70
2019-04-04T20:40:08.670Z,6.53
2019-04-04T20:42:38.492Z,6.59
2019-04-04T20:45:08.171Z,6.74
2019-04-04T20:47:37.651Z,6.61
2019-04-04T20:50:07.866Z,6.61
2019-04-04T20:52:37.444Z,6.73
2019-04-04T20:55:07.336Z,6.68
2019-04-04T20:57:36.763Z,6.70
2019-04-04T21:00:07.617Z,6.70
2019-04-04T21:02:36.936Z,6.70
2019-04-04T21:05:08.018Z,6.56
2019-04-04T21:07:37.990Z,6.56
2019-04-04T21:10:07.732Z,6.66
2019-04-04T21:12:37.066Z,6.66
2019-04-04T21:15:07.803Z,6.70
2019-04-04T21:17:37.102Z,6.68
2019-04-04T21:20:07.773Z,6.60
2019-04-04T21:22:37.064Z,6.47
2019-04-04T21:25:07.335Z,6.68
2019-04-04T21:27:36.641Z,6.68
2019-04-04T21:30:07.971Z,6.68
2019-04-04T21:32:37.278Z,6.56
2019-04-04T21:35:07.627Z,6.50
2019-04-04T21:37:37.034Z,6.42
2019-04-04T21:40:07.209Z,6.46
2019-04-04T21:42:37.131Z,6.46
2019-04-04T21:45:07.767Z,6.41
2019-04-04T21:47:37.738Z,6.47
2019-04-04T21:50:08.110Z,6.25
2019-04-04T21:52:38.009Z,6.25
2019-04-04T21:55:08.078Z,6.30
2019-04-04T21:57:37.975Z,6.38
2019-04-04T22:00:08.515Z,6.30
2019-04-04T22:02:38.304Z,6.28
2019-04-04T22:05:09.125Z,6.26
2019-04-04T22:07:38.808Z,6.20
2019-04-04T22:10:09.045Z,6.23
2019-04-04T22:12:38.604Z,6.27
2019-04-04T22:15:09.063Z,6.26
2019-04-04T22:17:38.628Z,6.10
2019-04-04T22:20:08.285Z,6.06
2019-04-04T22:22:38.173Z,5.95
2019-04-04T22:25:08.157Z,5.91
2019-04-04T22:27:38.419Z,5.73
2019-04-04T22:30:08.779Z,5.92
2019-04-04T22:32:38.410Z,5.99
2019-04-04T22:35:08.230Z,5.97
2019-04-04T22:37:37.520Z,5.97
2019-04-04T22:40:07.692Z,6.15
2019-04-04T22:42:37.025Z,6.09
2019-04-04T22:45:08.403Z,6.16
2019-04-04T22:47:37.721Z,6.12
2019-04-04T22:50:08.081Z,5.97
2019-04-04T22:52:37.408Z,5.88
2019-04-04T22:55:08.034Z,5.88
2019-04-04T22:57:37.416Z,5.91
2019-04-04T23:00:08.744Z,5.93
2019-04-04T23:02:38.129Z,5.86
2019-04-04T23:05:07.996Z,5.96
2019-04-04T23:07:37.480Z,5.84
2019-04-04T23:10:08.681Z,5.60
2019-04-04T23:12:38.105Z,5.58
2019-04-04T23:15:10.971Z,5.81
2019-04-04T23:17:40.289Z,5.60
2019-04-04T23:20:10.801Z,5.52
2019-04-04T23:22:52.250Z,5.48
2019-04-04T23:25:11.646Z,5.55
2019-04-04T23:27:40.979Z,5.59
2019-04-04T23:30:11.195Z,5.50
2019-04-04T23:32:41.076Z,5.38
2019-04-04T23:35:11.636Z,5.35
2019-04-04T23:37:40.959Z,5.31
2019-04-04T23:40:10.575Z,5.41
2019-04-04T23:42:39.901Z,5.35
2019-04-04T23:45:09.525Z,5.44
2019-04-04T23:47:43.024Z,5.39
2019-04-04T23:50:11.246Z,5.27
2019-04-04T23:52:40.565Z,5.22
2019-04-04T23:55:10.500Z,5.25
2019-04-04T23:57:39.815Z,5.32
